sensor_id;sensor_type;location;lat;lon;timestamp;temperature;humidity
4376;DHT22;2202;50.866;12.750;2022-08-19T00:01:56;18.40;99.90
4376;DHT22;2202;50.866;12.750;2022-08-19T00:04:25;18.40;99.90
4376;DHT22;2202;50.866;12.750;2022-08-19T00:06:53;18.40;99.90
4376;DHT22;2202;50.866;12.750;2022-08-19T00:09:23;18.40;99.90
4376;DHT22;2202;50.866;12.750;2022-08-19T00:11:51;18.40;99.90
4376;DHT22;2202;50.866;12.750;2022-08-19T00:14:19;18.40;99.90
4376;DHT22;2202;50.866;12.750;2022-08-19T00:16:48;18.40;99.90
4376;DHT22;2202;50.866;12.750;2022-08-19T00:19:18;18.40;99.90
4376;DHT22;2202;50.866;12.750;2022-08-19T00:21:44;18.40;99.90
4376;DHT22;2202;50.866;12.750;2022-08-19T00:24:13;18.40;99.90
4376;DHT22;2202;50.866;12.750;2022-08-19T00:26:44;18.30;99.90
4376;DHT22;2202;50.866;12.750;2022-08-19T00:29:12;18.30;99.90
4376;DHT22;2202;50.866;12.750;2022-08-19T00:31:40;18.40;99.90
4376;DHT22;2202;50.866;12.750;2022-08-19T00:34:08;18.40;99.90
4376;DHT22;2202;50.866;12.750;2022-08-19T00:36:36;18.40;99.90
4376;DHT22;2202;50.866;12.750;2022-08-19T00:39:04;18.50;99.90
4376;DHT22;2202;50.866;12.750;2022-08-19T00:41:31;18.50;99.90
4376;DHT22;2202;50.866;12.750;2022-08-19T00:44:03;18.50;99.90
4376;DHT22;2202;50.866;12.750;2022-08-19T00:46:32;18.50;99.90
4376;DHT22;2202;50.866;12.750;2022-08-19T00:49:03;18.50;99.90
4376;DHT22;2202;50.866;12.750;2022-08-19T00:51:33;18.50;99.90
4376;DHT22;2202;50.866;12.750;2022-08-19T00:54:00;18.50;99.90
4376;DHT22;2202;50.866;12.750;2022-08-19T00:56:28;18.50;99.90
4376;DHT22;2202;50.866;12.750;2022-08-19T00:58:58;18.50;99.90
4376;DHT22;2202;50.866;12.750;2022-08-19T01:01:26;18.50;99.90
4376;DHT22;2202;50.866;12.750;2022-08-19T01:03:53;18.50;99.90
4376;DHT22;2202;50.866;12.750;2022-08-19T01:06:20;18.60;99.90
4376;DHT22;2202;50.866;12.750;2022-08-19T01:08:47;18.60;99.90
4376;DHT22;2202;50.866;12.750;2022-08-19T01:11:14;18.60;99.70
4376;DHT22;2202;50.866;12.750;2022-08-19T01:13:42;18.50;99.80
4376;DHT22;2202;50.866;12.750;2022-08-19T01:16:12;18.60;99.90
4376;DHT22;2202;50.866;12.750;2022-08-19T01:18:42;18.70;99.70
4376;DHT22;2202;50.866;12.750;2022-08-19T01:21:12;18.70;99.60
4376;DHT22;2202;50.866;12.750;2022-08-19T01:23:43;18.70;99.60
4376;DHT22;2202;50.866;12.750;2022-08-19T01:26:12;18.70;99.60
4376;DHT22;2202;50.866;12.750;2022-08-19T01:28:41;18.70;99.60
4376;DHT22;2202;50.866;12.750;2022-08-19T01:31:12;18.60;99.70
4376;DHT22;2202;50.866;12.750;2022-08-19T01:33:39;18.70;99.70
4376;DHT22;2202;50.866;12.750;2022-08-19T01:36:09;18.70;99.60
4376;DHT22;2202;50.866;12.750;2022-08-19T01:38:40;18.70;99.40
4376;DHT22;2202;50.866;12.750;2022-08-19T01:41:10;18.70;99.50
4376;DHT22;2202;50.866;12.750;2022-08-19T01:43:37;18.80;99.30
4376;DHT22;2202;50.866;12.750;2022-08-19T01:46:04;18.90;99.10
4376;DHT22;2202;50.866;12.750;2022-08-19T01:48:35;18.80;99.10
4376;DHT22;2202;50.866;12.750;2022-08-19T01:51:02;18.80;99.20
4376;DHT22;2202;50.866;12.750;2022-08-19T01:53:29;18.80;99.20
4376;DHT22;2202;50.866;12.750;2022-08-19T01:55:56;18.80;99.20
4376;DHT22;2202;50.866;12.750;2022-08-19T01:58:27;18.80;99.10
4376;DHT22;2202;50.866;12.750;2022-08-19T02:00:56;18.90;99.00
4376;DHT22;2202;50.866;12.750;2022-08-19T02:03:23;18.90;98.90
4376;DHT22;2202;50.866;12.750;2022-08-19T02:05:55;19.00;98.60
4376;DHT22;2202;50.866;12.750;2022-08-19T02:08:23;18.90;98.70
4376;DHT22;2202;50.866;12.750;2022-08-19T02:10:49;18.90;99.10
4376;DHT22;2202;50.866;12.750;2022-08-19T02:13:17;18.80;99.10
4376;DHT22;2202;50.866;12.750;2022-08-19T02:15:45;18.80;99.30
4376;DHT22;2202;50.866;12.750;2022-08-19T02:18:13;18.80;99.30
4376;DHT22;2202;50.866;12.750;2022-08-19T02:20:41;18.90;99.20
4376;DHT22;2202;50.866;12.750;2022-08-19T02:23:09;18.90;99.20
4376;DHT22;2202;50.866;12.750;2022-08-19T02:25:37;18.70;99.50
4376;DHT22;2202;50.866;12.750;2022-08-19T02:28:04;18.70;99.70
4376;DHT22;2202;50.866;12.750;2022-08-19T02:30:31;18.70;99.80
4376;DHT22;2202;50.866;12.750;2022-08-19T02:33:00;18.60;99.90
4376;DHT22;2202;50.866;12.750;2022-08-19T02:35:27;18.60;99.90
4376;DHT22;2202;50.866;12.750;2022-08-19T02:37:54;18.50;99.90
4376;DHT22;2202;50.866;12.750;2022-08-19T02:40:38;18.60;99.90
4376;DHT22;2202;50.866;12.750;2022-08-19T02:43:07;18.50;99.90
4376;DHT22;2202;50.866;12.750;2022-08-19T02:45:35;18.70;99.90
4376;DHT22;2202;50.866;12.750;2022-08-19T02:48:04;18.70;99.90
4376;DHT22;2202;50.866;12.750;2022-08-19T02:50:31;18.70;99.90
4376;DHT22;2202;50.866;12.750;2022-08-19T02:52:58;18.70;99.90
4376;DHT22;2202;50.866;12.750;2022-08-19T02:55:25;18.60;99.90
4376;DHT22;2202;50.866;12.750;2022-08-19T02:57:52;18.60;99.90
4376;DHT22;2202;50.866;12.750;2022-08-19T03:00:19;18.70;99.90
4376;DHT22;2202;50.866;12.750;2022-08-19T03:02:46;18.70;99.90
4376;DHT22;2202;50.866;12.750;2022-08-19T03:05:15;18.80;99.90
4376;DHT22;2202;50.866;12.750;2022-08-19T03:07:42;18.80;99.90
4376;DHT22;2202;50.866;12.750;2022-08-19T03:10:09;18.90;99.90
4376;DHT22;2202;50.866;12.750;2022-08-19T03:12:37;18.90;99.60
4376;DHT22;2202;50.866;12.750;2022-08-19T03:15:07;18.90;99.50
4376;DHT22;2202;50.866;12.750;2022-08-19T03:17:34;18.90;99.40
4376;DHT22;2202;50.866;12.750;2022-08-19T03:20:02;18.90;99.60
4376;DHT22;2202;50.866;12.750;2022-08-19T03:22:31;18.80;99.80
4376;DHT22;2202;50.866;12.750;2022-08-19T03:24:58;18.70;99.90
4376;DHT22;2202;50.866;12.750;2022-08-19T03:27:25;18.60;99.90
4376;DHT22;2202;50.866;12.750;2022-08-19T03:29:52;18.70;99.90
4376;DHT22;2202;50.866;12.750;2022-08-19T03:32:19;18.60;99.90
4376;DHT22;2202;50.866;12.750;2022-08-19T03:34:47;18.50;99.90
4376;DHT22;2202;50.866;12.750;2022-08-19T03:37:14;18.50;99.90
4376;DHT22;2202;50.866;12.750;2022-08-19T03:39:43;18.50;99.90
4376;DHT22;2202;50.866;12.750;2022-08-19T03:42:10;18.50;99.90
4376;DHT22;2202;50.866;12.750;2022-08-19T03:44:38;18.60;99.90
4376;DHT22;2202;50.866;12.750;2022-08-19T03:47:05;18.60;99.90
4376;DHT22;2202;50.866;12.750;2022-08-19T03:49:32;18.50;99.90
4376;DHT22;2202;50.866;12.750;2022-08-19T03:52:01;18.50;99.90
4376;DHT22;2202;50.866;12.750;2022-08-19T03:54:30;18.40;99.90
4376;DHT22;2202;50.866;12.750;2022-08-19T03:56:58;18.50;99.90
4376;DHT22;2202;50.866;12.750;2022-08-19T03:59:31;18.50;99.90
4376;DHT22;2202;50.866;12.750;2022-08-19T04:02:00;18.50;99.90
4376;DHT22;2202;50.866;12.750;2022-08-19T04:04:28;18.40;99.90
4376;DHT22;2202;50.866;12.750;2022-08-19T04:06:56;18.40;99.90
4376;DHT22;2202;50.866;12.750;2022-08-19T04:09:23;18.40;99.90
4376;DHT22;2202;50.866;12.750;2022-08-19T04:11:52;18.40;99.90
4376;DHT22;2202;50.866;12.750;2022-08-19T04:14:23;18.50;99.90
4376;DHT22;2202;50.866;12.750;2022-08-19T04:16:52;18.50;99.90
4376;DHT22;2202;50.866;12.750;2022-08-19T04:19:19;18.40;99.90
4376;DHT22;2202;50.866;12.750;2022-08-19T04:21:49;18.40;99.90
4376;DHT22;2202;50.866;12.750;2022-08-19T04:24:17;18.30;99.90
4376;DHT22;2202;50.866;12.750;2022-08-19T04:26:45;18.30;99.90
4376;DHT22;2202;50.866;12.750;2022-08-19T04:29:14;18.30;99.90
4376;DHT22;2202;50.866;12.750;2022-08-19T04:31:43;18.30;99.90
4376;DHT22;2202;50.866;12.750;2022-08-19T04:34:12;18.30;99.90
4376;DHT22;2202;50.866;12.750;2022-08-19T04:36:41;18.30;99.90
4376;DHT22;2202;50.866;12.750;2022-08-19T04:39:12;18.30;99.90
4376;DHT22;2202;50.866;12.750;2022-08-19T04:41:39;18.40;99.90
4376;DHT22;2202;50.866;12.750;2022-08-19T04:44:23;18.40;99.90
4376;DHT22;2202;50.866;12.750;2022-08-19T04:46:52;18.30;99.90
4376;DHT22;2202;50.866;12.750;2022-08-19T04:49:21;18.30;99.90
4376;DHT22;2202;50.866;12.750;2022-08-19T04:51:49;18.20;99.90
4376;DHT22;2202;50.866;12.750;2022-08-19T04:54:20;18.20;99.90
4376;DHT22;2202;50.866;12.750;2022-08-19T04:56:48;18.30;99.90
4376;DHT22;2202;50.866;12.750;2022-08-19T04:59:15;18.30;99.90
4376;DHT22;2202;50.866;12.750;2022-08-19T05:01:44;18.30;99.90
4376;DHT22;2202;50.866;12.750;2022-08-19T05:04:18;18.30;99.90
4376;DHT22;2202;50.866;12.750;2022-08-19T05:06:46;18.30;99.90
4376;DHT22;2202;50.866;12.750;2022-08-19T05:09:13;18.30;99.90
4376;DHT22;2202;50.866;12.750;2022-08-19T05:11:41;18.30;99.90
4376;DHT22;2202;50.866;12.750;2022-08-19T05:14:09;18.30;99.90
4376;DHT22;2202;50.866;12.750;2022-08-19T05:16:38;18.30;99.90
4376;DHT22;2202;50.866;12.750;2022-08-19T05:19:05;18.20;99.90
4376;DHT22;2202;50.866;12.750;2022-08-19T05:21:50;18.20;99.90
4376;DHT22;2202;50.866;12.750;2022-08-19T05:24:35;18.20;99.90
4376;DHT22;2202;50.866;12.750;2022-08-19T05:27:03;18.20;99.90
4376;DHT22;2202;50.866;12.750;2022-08-19T05:29:32;18.20;99.90
4376;DHT22;2202;50.866;12.750;2022-08-19T05:32:00;18.20;99.90
4376;DHT22;2202;50.866;12.750;2022-08-19T05:34:27;18.20;99.90
4376;DHT22;2202;50.866;12.750;2022-08-19T05:36:57;18.20;99.90
4376;DHT22;2202;50.866;12.750;2022-08-19T05:39:28;18.20;99.90
4376;DHT22;2202;50.866;12.750;2022-08-19T05:41:57;18.20;99.90
4376;DHT22;2202;50.866;12.750;2022-08-19T05:44:25;18.20;99.90
4376;DHT22;2202;50.866;12.750;2022-08-19T05:46:52;18.20;99.90
4376;DHT22;2202;50.866;12.750;2022-08-19T05:49:21;18.20;99.90
4376;DHT22;2202;50.866;12.750;2022-08-19T05:51:49;18.30;99.90
4376;DHT22;2202;50.866;12.750;2022-08-19T05:54:18;18.20;99.90
4376;DHT22;2202;50.866;12.750;2022-08-19T05:56:45;18.20;99.90
4376;DHT22;2202;50.866;12.750;2022-08-19T05:59:14;18.20;99.90
4376;DHT22;2202;50.866;12.750;2022-08-19T06:01:42;18.20;99.90
4376;DHT22;2202;50.866;12.750;2022-08-19T06:04:10;18.20;99.90
4376;DHT22;2202;50.866;12.750;2022-08-19T06:06:38;18.20;99.90
4376;DHT22;2202;50.866;12.750;2022-08-19T06:09:07;18.30;99.90
4376;DHT22;2202;50.866;12.750;2022-08-19T06:11:38;18.30;99.90
4376;DHT22;2202;50.866;12.750;2022-08-19T06:14:07;18.30;99.90
4376;DHT22;2202;50.866;12.750;2022-08-19T06:16:35;18.30;99.90
4376;DHT22;2202;50.866;12.750;2022-08-19T06:19:06;18.30;99.90
4376;DHT22;2202;50.866;12.750;2022-08-19T06:21:35;18.40;99.90
4376;DHT22;2202;50.866;12.750;2022-08-19T06:24:05;18.30;99.90
4376;DHT22;2202;50.866;12.750;2022-08-19T06:26:33;18.40;99.90
4376;DHT22;2202;50.866;12.750;2022-08-19T06:29:02;18.40;99.90
4376;DHT22;2202;50.866;12.750;2022-08-19T06:31:32;18.40;99.90
4376;DHT22;2202;50.866;12.750;2022-08-19T06:34:00;18.40;99.90
4376;DHT22;2202;50.866;12.750;2022-08-19T06:36:30;18.40;99.90
4376;DHT22;2202;50.866;12.750;2022-08-19T06:39:00;18.40;99.90
4376;DHT22;2202;50.866;12.750;2022-08-19T06:41:28;18.40;99.90
4376;DHT22;2202;50.866;12.750;2022-08-19T06:43:55;18.40;99.90
4376;DHT22;2202;50.866;12.750;2022-08-19T06:46:24;18.40;99.90
4376;DHT22;2202;50.866;12.750;2022-08-19T06:48:51;18.40;99.90
4376;DHT22;2202;50.866;12.750;2022-08-19T06:51:20;18.30;99.90
4376;DHT22;2202;50.866;12.750;2022-08-19T06:53:49;18.30;99.90
4376;DHT22;2202;50.866;12.750;2022-08-19T06:56:17;18.20;99.90
4376;DHT22;2202;50.866;12.750;2022-08-19T06:58:44;18.30;99.90
4376;DHT22;2202;50.866;12.750;2022-08-19T07:01:12;18.30;99.90
4376;DHT22;2202;50.866;12.750;2022-08-19T07:03:41;18.40;99.90
4376;DHT22;2202;50.866;12.750;2022-08-19T07:06:10;18.30;99.90
4376;DHT22;2202;50.866;12.750;2022-08-19T07:08:38;18.30;99.90
4376;DHT22;2202;50.866;12.750;2022-08-19T07:11:07;18.30;99.90
4376;DHT22;2202;50.866;12.750;2022-08-19T07:13:34;18.30;99.90
4376;DHT22;2202;50.866;12.750;2022-08-19T07:16:04;18.30;99.90
4376;DHT22;2202;50.866;12.750;2022-08-19T07:18:31;18.40;99.90
4376;DHT22;2202;50.866;12.750;2022-08-19T07:21:04;18.50;99.90
4376;DHT22;2202;50.866;12.750;2022-08-19T07:23:32;18.50;99.90
4376;DHT22;2202;50.866;12.750;2022-08-19T07:26:05;18.50;99.90
4376;DHT22;2202;50.866;12.750;2022-08-19T07:28:32;18.50;99.90
4376;DHT22;2202;50.866;12.750;2022-08-19T07:30:59;18.50;99.90
4376;DHT22;2202;50.866;12.750;2022-08-19T07:33:27;18.60;99.90
4376;DHT22;2202;50.866;12.750;2022-08-19T07:35:57;18.70;99.90
4376;DHT22;2202;50.866;12.750;2022-08-19T07:38:26;18.70;99.90
4376;DHT22;2202;50.866;12.750;2022-08-19T07:40:53;18.70;99.90
4376;DHT22;2202;50.866;12.750;2022-08-19T07:43:20;18.70;99.90
4376;DHT22;2202;50.866;12.750;2022-08-19T07:45:50;18.70;99.90
4376;DHT22;2202;50.866;12.750;2022-08-19T07:48:17;18.80;99.90
4376;DHT22;2202;50.866;12.750;2022-08-19T07:50:45;18.80;99.90
4376;DHT22;2202;50.866;12.750;2022-08-19T07:53:13;18.80;99.90
4376;DHT22;2202;50.866;12.750;2022-08-19T07:55:42;18.80;99.90
4376;DHT22;2202;50.866;12.750;2022-08-19T07:58:10;18.80;99.90
4376;DHT22;2202;50.866;12.750;2022-08-19T08:00:38;18.80;99.90
4376;DHT22;2202;50.866;12.750;2022-08-19T08:03:05;18.90;99.90
4376;DHT22;2202;50.866;12.750;2022-08-19T08:05:34;18.90;99.90
4376;DHT22;2202;50.866;12.750;2022-08-19T08:08:18;18.90;99.90
4376;DHT22;2202;50.866;12.750;2022-08-19T08:11:03;19.00;99.90
4376;DHT22;2202;50.866;12.750;2022-08-19T08:13:30;19.00;99.90
4376;DHT22;2202;50.866;12.750;2022-08-19T08:15:58;19.00;99.90
4376;DHT22;2202;50.866;12.750;2022-08-19T08:18:25;19.10;99.90
4376;DHT22;2202;50.866;12.750;2022-08-19T08:20:52;19.00;99.90
4376;DHT22;2202;50.866;12.750;2022-08-19T08:23:19;18.90;99.90
4376;DHT22;2202;50.866;12.750;2022-08-19T08:25:51;18.80;99.90
4376;DHT22;2202;50.866;12.750;2022-08-19T08:28:20;18.70;99.90
4376;DHT22;2202;50.866;12.750;2022-08-19T08:30:48;18.70;99.90
4376;DHT22;2202;50.866;12.750;2022-08-19T08:33:18;18.70;99.90
4376;DHT22;2202;50.866;12.750;2022-08-19T08:35:47;18.70;99.90
4376;DHT22;2202;50.866;12.750;2022-08-19T08:38:14;18.70;99.90
4376;DHT22;2202;50.866;12.750;2022-08-19T08:40:45;18.70;99.90
4376;DHT22;2202;50.866;12.750;2022-08-19T08:43:24;18.70;99.90
4376;DHT22;2202;50.866;12.750;2022-08-19T08:46:03;18.90;99.90
4376;DHT22;2202;50.866;12.750;2022-08-19T08:48:37;18.90;99.90
4376;DHT22;2202;50.866;12.750;2022-08-19T08:51:09;18.90;99.90
4376;DHT22;2202;50.866;12.750;2022-08-19T08:53:37;18.70;99.90
4376;DHT22;2202;50.866;12.750;2022-08-19T08:56:06;18.70;99.90
4376;DHT22;2202;50.866;12.750;2022-08-19T08:58:46;18.70;99.90
4376;DHT22;2202;50.866;12.750;2022-08-19T09:01:14;18.80;99.90
4376;DHT22;2202;50.866;12.750;2022-08-19T09:03:43;18.80;99.90
4376;DHT22;2202;50.866;12.750;2022-08-19T09:06:14;18.80;99.90
4376;DHT22;2202;50.866;12.750;2022-08-19T09:09:00;18.80;99.90
4376;DHT22;2202;50.866;12.750;2022-08-19T09:11:40;18.90;99.90
4376;DHT22;2202;50.866;12.750;2022-08-19T09:14:19;19.00;99.90
4376;DHT22;2202;50.866;12.750;2022-08-19T09:16:50;19.10;99.90
4376;DHT22;2202;50.866;12.750;2022-08-19T09:19:17;19.20;99.90
4376;DHT22;2202;50.866;12.750;2022-08-19T09:21:44;19.20;99.90
4376;DHT22;2202;50.866;12.750;2022-08-19T09:24:11;19.30;99.90
4376;DHT22;2202;50.866;12.750;2022-08-19T09:26:39;19.30;99.90
4376;DHT22;2202;50.866;12.750;2022-08-19T09:29:05;19.40;99.90
4376;DHT22;2202;50.866;12.750;2022-08-19T09:31:34;19.30;99.20
4376;DHT22;2202;50.866;12.750;2022-08-19T09:34:01;19.30;99.50
4376;DHT22;2202;50.866;12.750;2022-08-19T09:36:31;19.20;99.50
4376;DHT22;2202;50.866;12.750;2022-08-19T09:39:02;19.20;99.60
4376;DHT22;2202;50.866;12.750;2022-08-19T09:41:29;19.20;99.50
4376;DHT22;2202;50.866;12.750;2022-08-19T09:43:57;19.10;99.70
4376;DHT22;2202;50.866;12.750;2022-08-19T09:46:26;19.10;99.80
4376;DHT22;2202;50.866;12.750;2022-08-19T09:48:57;19.00;99.80
4376;DHT22;2202;50.866;12.750;2022-08-19T09:51:26;19.00;99.90
4376;DHT22;2202;50.866;12.750;2022-08-19T09:53:54;19.00;99.90
4376;DHT22;2202;50.866;12.750;2022-08-19T09:56:22;19.00;99.90
4376;DHT22;2202;50.866;12.750;2022-08-19T09:58:49;19.10;99.90
4376;DHT22;2202;50.866;12.750;2022-08-19T10:01:19;19.00;99.90
4376;DHT22;2202;50.866;12.750;2022-08-19T10:03:48;19.00;99.90
4376;DHT22;2202;50.866;12.750;2022-08-19T10:06:18;19.00;99.90
4376;DHT22;2202;50.866;12.750;2022-08-19T10:08:45;19.20;99.90
4376;DHT22;2202;50.866;12.750;2022-08-19T10:11:14;19.20;99.60
4376;DHT22;2202;50.866;12.750;2022-08-19T10:13:43;19.20;99.50
4376;DHT22;2202;50.866;12.750;2022-08-19T10:16:12;19.20;99.50
4376;DHT22;2202;50.866;12.750;2022-08-19T10:18:40;19.10;99.20
4376;DHT22;2202;50.866;12.750;2022-08-19T10:21:11;19.10;99.30
4376;DHT22;2202;50.866;12.750;2022-08-19T10:23:42;19.10;99.30
4376;DHT22;2202;50.866;12.750;2022-08-19T10:26:16;19.10;99.40
4376;DHT22;2202;50.866;12.750;2022-08-19T10:28:43;19.10;99.10
4376;DHT22;2202;50.866;12.750;2022-08-19T10:31:12;19.00;99.60
4376;DHT22;2202;50.866;12.750;2022-08-19T10:33:40;18.90;99.90
4376;DHT22;2202;50.866;12.750;2022-08-19T10:36:09;18.90;99.90
4376;DHT22;2202;50.866;12.750;2022-08-19T10:38:37;18.80;99.90
4376;DHT22;2202;50.866;12.750;2022-08-19T10:41:10;18.70;99.90
4376;DHT22;2202;50.866;12.750;2022-08-19T10:43:37;18.60;99.90
4376;DHT22;2202;50.866;12.750;2022-08-19T10:46:06;18.70;99.90
4376;DHT22;2202;50.866;12.750;2022-08-19T10:48:33;18.80;99.90
4376;DHT22;2202;50.866;12.750;2022-08-19T10:51:01;18.90;99.90
4376;DHT22;2202;50.866;12.750;2022-08-19T10:53:46;19.00;99.90
4376;DHT22;2202;50.866;12.750;2022-08-19T10:56:14;18.90;99.70
4376;DHT22;2202;50.866;12.750;2022-08-19T10:58:59;18.80;99.90
4376;DHT22;2202;50.866;12.750;2022-08-19T11:01:26;18.80;99.90
4376;DHT22;2202;50.866;12.750;2022-08-19T11:03:55;18.80;99.90
4376;DHT22;2202;50.866;12.750;2022-08-19T11:06:23;18.90;99.90
4376;DHT22;2202;50.866;12.750;2022-08-19T11:08:53;18.90;99.90
4376;DHT22;2202;50.866;12.750;2022-08-19T11:11:23;18.80;99.90
4376;DHT22;2202;50.866;12.750;2022-08-19T11:13:50;18.70;99.90
4376;DHT22;2202;50.866;12.750;2022-08-19T11:16:20;18.60;99.90
4376;DHT22;2202;50.866;12.750;2022-08-19T11:18:49;18.40;99.90
4376;DHT22;2202;50.866;12.750;2022-08-19T11:21:18;18.20;99.90
4376;DHT22;2202;50.866;12.750;2022-08-19T11:23:46;18.20;99.90
4376;DHT22;2202;50.866;12.750;2022-08-19T11:26:14;18.10;99.90
4376;DHT22;2202;50.866;12.750;2022-08-19T11:28:43;18.10;99.90
4376;DHT22;2202;50.866;12.750;2022-08-19T11:31:11;18.00;99.90
4376;DHT22;2202;50.866;12.750;2022-08-19T11:33:38;17.90;99.90
4376;DHT22;2202;50.866;12.750;2022-08-19T11:36:06;17.90;99.90
4376;DHT22;2202;50.866;12.750;2022-08-19T11:38:33;18.00;99.90
4376;DHT22;2202;50.866;12.750;2022-08-19T11:41:06;18.00;99.90
4376;DHT22;2202;50.866;12.750;2022-08-19T11:43:33;18.10;99.90
4376;DHT22;2202;50.866;12.750;2022-08-19T11:46:05;18.10;99.90
4376;DHT22;2202;50.866;12.750;2022-08-19T11:48:33;18.00;99.90
4376;DHT22;2202;50.866;12.750;2022-08-19T11:51:03;18.10;99.90
4376;DHT22;2202;50.866;12.750;2022-08-19T11:53:32;18.20;99.90
4376;DHT22;2202;50.866;12.750;2022-08-19T11:56:00;18.30;99.90
4376;DHT22;2202;50.866;12.750;2022-08-19T11:58:27;18.30;99.90
4376;DHT22;2202;50.866;12.750;2022-08-19T12:00:56;18.40;99.90
4376;DHT22;2202;50.866;12.750;2022-08-19T12:03:24;18.30;99.90
4376;DHT22;2202;50.866;12.750;2022-08-19T12:05:51;18.30;99.90
4376;DHT22;2202;50.866;12.750;2022-08-19T12:08:18;18.30;99.80
4376;DHT22;2202;50.866;12.750;2022-08-19T12:10:45;18.20;99.40
4376;DHT22;2202;50.866;12.750;2022-08-19T12:13:13;18.00;99.70
4376;DHT22;2202;50.866;12.750;2022-08-19T12:15:47;18.10;99.90
4376;DHT22;2202;50.866;12.750;2022-08-19T12:18:15;18.00;99.80
4376;DHT22;2202;50.866;12.750;2022-08-19T12:20:43;17.90;99.90
4376;DHT22;2202;50.866;12.750;2022-08-19T12:23:11;18.00;99.90
4376;DHT22;2202;50.866;12.750;2022-08-19T12:25:44;18.00;99.80
4376;DHT22;2202;50.866;12.750;2022-08-19T12:28:13;18.00;99.60
4376;DHT22;2202;50.866;12.750;2022-08-19T12:30:40;18.00;99.60
4376;DHT22;2202;50.866;12.750;2022-08-19T12:33:08;17.90;99.40
4376;DHT22;2202;50.866;12.750;2022-08-19T12:35:35;18.00;99.60
4376;DHT22;2202;50.866;12.750;2022-08-19T12:38:03;18.00;99.20
4376;DHT22;2202;50.866;12.750;2022-08-19T12:40:30;17.90;99.30
4376;DHT22;2202;50.866;12.750;2022-08-19T12:42:57;18.10;99.50
4376;DHT22;2202;50.866;12.750;2022-08-19T12:45:24;18.20;99.30
4376;DHT22;2202;50.866;12.750;2022-08-19T12:47:51;18.20;98.90
4376;DHT22;2202;50.866;12.750;2022-08-19T12:50:18;18.20;98.50
4376;DHT22;2202;50.866;12.750;2022-08-19T12:52:47;18.10;98.40
4376;DHT22;2202;50.866;12.750;2022-08-19T12:55:15;18.10;98.70
4376;DHT22;2202;50.866;12.750;2022-08-19T12:57:44;18.20;98.70
4376;DHT22;2202;50.866;12.750;2022-08-19T13:00:13;18.10;98.20
4376;DHT22;2202;50.866;12.750;2022-08-19T13:02:42;18.10;98.60
4376;DHT22;2202;50.866;12.750;2022-08-19T13:05:13;18.00;98.80
4376;DHT22;2202;50.866;12.750;2022-08-19T13:07:41;18.10;98.90
4376;DHT22;2202;50.866;12.750;2022-08-19T13:10:12;18.30;98.80
4376;DHT22;2202;50.866;12.750;2022-08-19T13:12:42;18.20;98.00
4376;DHT22;2202;50.866;12.750;2022-08-19T13:15:12;18.20;98.10
4376;DHT22;2202;50.866;12.750;2022-08-19T13:17:41;18.10;98.30
4376;DHT22;2202;50.866;12.750;2022-08-19T13:20:10;18.20;98.30
4376;DHT22;2202;50.866;12.750;2022-08-19T13:22:37;18.20;98.00
4376;DHT22;2202;50.866;12.750;2022-08-19T13:25:05;18.20;98.20
4376;DHT22;2202;50.866;12.750;2022-08-19T13:27:32;18.40;98.00
4376;DHT22;2202;50.866;12.750;2022-08-19T13:30:03;18.40;97.80
4376;DHT22;2202;50.866;12.750;2022-08-19T13:32:47;18.40;97.80
4376;DHT22;2202;50.866;12.750;2022-08-19T13:35:31;18.40;97.60
4376;DHT22;2202;50.866;12.750;2022-08-19T13:37:58;18.30;97.30
4376;DHT22;2202;50.866;12.750;2022-08-19T13:40:31;18.30;97.40
4376;DHT22;2202;50.866;12.750;2022-08-19T13:43:00;18.40;97.50
4376;DHT22;2202;50.866;12.750;2022-08-19T13:45:30;18.50;97.40
4376;DHT22;2202;50.866;12.750;2022-08-19T13:48:00;18.50;97.10
4376;DHT22;2202;50.866;12.750;2022-08-19T13:50:33;18.60;97.00
4376;DHT22;2202;50.866;12.750;2022-08-19T13:53:00;18.70;96.80
4376;DHT22;2202;50.866;12.750;2022-08-19T13:55:28;18.60;96.40
4376;DHT22;2202;50.866;12.750;2022-08-19T13:57:57;18.60;96.90
4376;DHT22;2202;50.866;12.750;2022-08-19T14:00:26;18.60;96.70
4376;DHT22;2202;50.866;12.750;2022-08-19T14:02:55;18.60;96.50
4376;DHT22;2202;50.866;12.750;2022-08-19T14:05:24;18.80;96.50
4376;DHT22;2202;50.866;12.750;2022-08-19T14:07:52;18.90;96.00
4376;DHT22;2202;50.866;12.750;2022-08-19T14:10:19;18.90;95.20
4376;DHT22;2202;50.866;12.750;2022-08-19T14:12:47;18.90;95.70
4376;DHT22;2202;50.866;12.750;2022-08-19T14:15:15;18.90;96.10
4376;DHT22;2202;50.866;12.750;2022-08-19T14:17:44;19.00;95.80
4376;DHT22;2202;50.866;12.750;2022-08-19T14:20:13;19.00;96.00
4376;DHT22;2202;50.866;12.750;2022-08-19T14:22:41;18.90;95.80
4376;DHT22;2202;50.866;12.750;2022-08-19T14:25:16;18.90;96.30
4376;DHT22;2202;50.866;12.750;2022-08-19T14:27:43;19.20;96.50
4376;DHT22;2202;50.866;12.750;2022-08-19T14:30:13;19.10;95.40
4376;DHT22;2202;50.866;12.750;2022-08-19T14:32:40;19.00;95.50
4376;DHT22;2202;50.866;12.750;2022-08-19T14:35:09;19.10;95.50
4376;DHT22;2202;50.866;12.750;2022-08-19T14:37:40;19.00;95.70
4376;DHT22;2202;50.866;12.750;2022-08-19T14:40:08;18.80;95.90
4376;DHT22;2202;50.866;12.750;2022-08-19T14:42:36;18.80;96.50
4376;DHT22;2202;50.866;12.750;2022-08-19T14:45:04;18.90;96.60
4376;DHT22;2202;50.866;12.750;2022-08-19T14:47:31;19.00;96.00
4376;DHT22;2202;50.866;12.750;2022-08-19T14:49:59;18.80;96.10
4376;DHT22;2202;50.866;12.750;2022-08-19T14:52:26;18.70;96.30
4376;DHT22;2202;50.866;12.750;2022-08-19T14:54:54;18.60;96.90
4376;DHT22;2202;50.866;12.750;2022-08-19T14:57:21;18.60;96.90
4376;DHT22;2202;50.866;12.750;2022-08-19T14:59:48;18.60;96.70
4376;DHT22;2202;50.866;12.750;2022-08-19T15:02:16;18.70;96.80
4376;DHT22;2202;50.866;12.750;2022-08-19T15:04:43;18.70;96.50
4376;DHT22;2202;50.866;12.750;2022-08-19T15:07:10;18.70;96.50
4376;DHT22;2202;50.866;12.750;2022-08-19T15:09:37;18.70;96.50
4376;DHT22;2202;50.866;12.750;2022-08-19T15:12:07;18.70;96.20
4376;DHT22;2202;50.866;12.750;2022-08-19T15:14:36;18.70;96.30
4376;DHT22;2202;50.866;12.750;2022-08-19T15:17:04;18.80;96.50
4376;DHT22;2202;50.866;12.750;2022-08-19T15:19:32;18.90;95.70
4376;DHT22;2202;50.866;12.750;2022-08-19T15:22:01;18.80;95.40
4376;DHT22;2202;50.866;12.750;2022-08-19T15:24:28;18.80;95.70
4376;DHT22;2202;50.866;12.750;2022-08-19T15:26:55;18.90;95.70
4376;DHT22;2202;50.866;12.750;2022-08-19T15:29:24;18.80;95.40
4376;DHT22;2202;50.866;12.750;2022-08-19T15:31:52;18.80;95.40
4376;DHT22;2202;50.866;12.750;2022-08-19T15:34:21;18.80;95.60
4376;DHT22;2202;50.866;12.750;2022-08-19T15:36:48;18.90;95.40
4376;DHT22;2202;50.866;12.750;2022-08-19T15:39:15;18.90;95.40
4376;DHT22;2202;50.866;12.750;2022-08-19T15:41:44;18.90;95.10
4376;DHT22;2202;50.866;12.750;2022-08-19T15:44:15;18.90;94.80
4376;DHT22;2202;50.866;12.750;2022-08-19T15:46:46;18.90;94.70
4376;DHT22;2202;50.866;12.750;2022-08-19T15:49:15;18.70;95.20
4376;DHT22;2202;50.866;12.750;2022-08-19T15:51:45;18.60;95.40
4376;DHT22;2202;50.866;12.750;2022-08-19T15:54:14;18.50;95.70
4376;DHT22;2202;50.866;12.750;2022-08-19T15:56:42;18.50;95.80